Time;durP1;ratioP1;P1;durP2;ratioP2;P2;SDS_P1;SDS_P2;PMS_P1;PMS_P2;Temp;Humidity;BMP_temperature;BMP_pressure;BME280_temperature;BME280_humidity;BME280_pressure;Samples;Min_cycle;Max_cycle;Signal;HPM_P1;HPM_P2
2022/04/02 00:02:16;;;;;;;4.18;2.10;;;2.60;99.90;;;;;;5094197;28;20071;-73
2022/04/02 00:04:42;;;;;;;4.57;1.70;;;2.60;99.90;;;;;;5093739;28;20078;-73
2022/04/02 00:07:07;;;;;;;3.15;1.75;;;2.60;99.90;;;;;;5093742;28;20044;-73
2022/04/02 00:09:34;;;;;;;5.20;1.83;;;2.60;99.90;;;;;;5093661;28;20055;-73
2022/04/02 00:12:01;;;;;;;3.55;1.73;;;2.60;99.90;;;;;;5093678;28;20044;-73
2022/04/02 00:14:26;;;;;;;6.95;2.35;;;2.60;99.90;;;;;;5093672;28;20062;-73
2022/04/02 00:16:52;;;;;;;3.33;1.77;;;2.60;99.90;;;;;;5093595;28;20036;-73
2022/04/02 00:19:19;;;;;;;6.28;2.00;;;2.60;99.90;;;;;;5093486;28;20044;-73
2022/04/02 00:21:44;;;;;;;3.80;1.85;;;2.60;99.90;;;;;;5093505;28;20044;-73
2022/04/02 00:24:10;;;;;;;3.35;2.00;;;2.50;99.90;;;;;;5076494;28;20044;-73
2022/04/02 00:26:36;;;;;;;3.25;1.88;;;2.50;99.90;;;;;;5093436;28;20036;-73
2022/04/02 00:29:01;;;;;;;5.32;1.85;;;2.50;99.90;;;;;;5093502;28;20032;-71
2022/04/02 00:31:29;;;;;;;4.18;2.00;;;2.50;99.90;;;;;;5093228;28;20028;-71
2022/04/02 00:33:55;;;;;;;6.22;2.30;;;2.50;99.90;;;;;;5093539;28;20523;-71
2022/04/02 00:36:23;;;;;;;3.47;2.00;;;2.50;99.90;;;;;;5076537;28;20036;-71
2022/04/02 00:38:49;;;;;;;4.43;2.15;;;2.40;99.90;;;;;;5093419;28;20070;-72
2022/04/02 00:41:15;;;;;;;4.10;1.70;;;2.40;99.90;;;;;;5093051;28;20484;-73
2022/04/02 00:43:54;;;;;;;3.92;2.10;;;2.40;99.90;;;;;;5092737;28;20050;-73
2022/04/02 00:46:20;;;;;;;5.57;2.13;;;2.40;99.90;;;;;;5075790;28;20035;-73
2022/04/02 00:48:45;;;;;;;4.32;2.35;;;2.30;99.90;;;;;;5092942;28;20128;-73
2022/04/02 00:51:15;;;;;;;4.47;2.00;;;2.30;99.90;;;;;;5092871;28;20074;-73
2022/04/02 00:53:44;;;;;;;4.45;2.40;;;2.30;99.90;;;;;;5093166;28;20373;-73
2022/04/02 00:56:12;;;;;;;5.38;2.55;;;2.30;99.90;;;;;;5093081;28;20032;-73
2022/04/02 00:58:39;;;;;;;3.28;1.58;;;2.20;99.90;;;;;;5075912;28;20035;-73
2022/04/02 01:01:06;;;;;;;5.53;2.00;;;2.20;99.90;;;;;;5075830;28;20064;-73
2022/04/02 01:03:32;;;;;;;5.15;2.13;;;2.20;99.90;;;;;;5092689;28;20456;-73
2022/04/02 01:05:58;;;;;;;4.07;2.15;;;2.20;99.90;;;;;;5092610;28;20111;-73
2022/04/02 01:08:23;;;;;;;6.68;2.10;;;2.20;99.90;;;;;;5075685;28;20556;-73
2022/04/02 01:10:49;;;;;;;6.47;2.33;;;2.10;99.90;;;;;;5075664;28;20036;-73
2022/04/02 01:13:16;;;;;;;4.40;2.13;;;2.10;99.90;;;;;;5092805;28;20070;-73
2022/04/02 01:15:41;;;;;;;4.18;2.10;;;2.10;99.90;;;;;;5092497;28;20043;-73
2022/04/02 01:18:07;;;;;;;3.75;2.15;;;2.10;99.90;;;;;;5075607;28;20093;-73
2022/04/02 01:20:34;;;;;;;5.28;2.20;;;2.00;99.90;;;;;;5092316;28;20046;-72
2022/04/02 01:23:00;;;;;;;4.82;2.00;;;2.00;99.90;;;;;;5092671;28;20399;-72
2022/04/02 01:25:32;;;;;;;5.75;2.00;;;2.00;99.90;;;;;;5092443;28;20075;-73
2022/04/02 01:28:02;;;;;;;4.60;2.35;;;1.90;99.90;;;;;;5075455;28;20040;-73
2022/04/02 01:30:29;;;;;;;4.43;2.20;;;2.00;99.90;;;;;;5092349;28;20148;-73
2022/04/02 01:32:55;;;;;;;5.03;2.05;;;1.90;99.90;;;;;;5092724;28;20036;-73
2022/04/02 01:35:21;;;;;;;4.97;2.08;;;1.90;99.90;;;;;;5075373;28;20089;-73
2022/04/02 01:37:48;;;;;;;3.40;2.00;;;1.90;99.90;;;;;;5092436;28;20040;-74
2022/04/02 01:40:14;;;;;;;4.78;2.30;;;1.90;99.90;;;;;;5092072;28;20051;-74
2022/04/02 01:42:40;;;;;;;6.78;2.10;;;1.80;99.90;;;;;;5092106;28;20039;-74
2022/04/02 01:45:06;;;;;;;6.30;2.28;;;1.80;99.90;;;;;;5092195;28;20043;-74
2022/04/02 01:47:32;;;;;;;4.38;2.10;;;1.80;99.90;;;;;;5075287;28;20180;-74
2022/04/02 01:49:57;;;;;;;7.68;2.70;;;1.80;99.90;;;;;;5092235;28;20087;-74
2022/04/02 01:52:23;;;;;;;6.47;2.05;;;1.80;99.90;;;;;;5092061;28;20036;-74
2022/04/02 01:54:49;;;;;;;3.88;2.17;;;1.80;99.90;;;;;;5092347;28;20047;-73
2022/04/02 01:57:15;;;;;;;3.35;1.90;;;1.80;99.90;;;;;;5091980;28;20549;-74
2022/04/02 01:59:44;;;;;;;5.78;2.38;;;1.80;99.90;;;;;;5091916;28;20076;-74
2022/04/02 02:02:10;;;;;;;4.57;2.53;;;1.80;99.90;;;;;;5091954;28;20044;-71
2022/04/02 02:04:37;;;;;;;4.35;2.30;;;1.80;99.90;;;;;;5075182;28;20044;-71
2022/04/02 02:07:04;;;;;;;6.40;2.42;;;1.80;99.90;;;;;;5075039;28;20043;-71
2022/04/02 02:09:29;;;;;;;4.07;2.22;;;1.80;99.90;;;;;;5092086;28;20097;-71
2022/04/02 02:11:56;;;;;;;4.15;2.35;;;1.80;99.90;;;;;;5092143;28;20036;-71
2022/04/02 02:14:22;;;;;;;6.28;2.53;;;1.80;99.90;;;;;;5091806;28;20089;-71
2022/04/02 02:16:48;;;;;;;4.10;2.35;;;1.80;99.90;;;;;;5091775;28;20499;-71
2022/04/02 02:19:14;;;;;;;4.70;2.55;;;1.80;99.90;;;;;;5092245;28;20050;-72
2022/04/02 02:21:39;;;;;;;2.90;2.15;;;1.80;99.90;;;;;;5091723;28;20043;-73
2022/04/02 02:24:06;;;;;;;4.85;2.40;;;1.80;99.90;;;;;;5074801;28;20039;-73
2022/04/02 02:26:31;;;;;;;4.97;2.20;;;1.80;99.90;;;;;;5091996;28;20035;-74
2022/04/02 02:28:57;;;;;;;5.75;2.50;;;1.90;99.90;;;;;;5091708;28;20377;-74
2022/04/02 02:31:23;;;;;;;4.00;2.50;;;1.90;99.90;;;;;;5091542;28;20161;-74
2022/04/02 02:36:33;;;;;;;6.53;2.75;;;1.80;99.90;;;;;;5091620;28;20552;-74
2022/04/02 02:38:58;;;;;;;6.00;2.40;;;1.80;99.90;;;;;;5091884;28;20071;-74
2022/04/02 02:41:24;;;;;;;4.57;2.30;;;1.80;99.90;;;;;;5074634;28;20511;-74
2022/04/02 02:43:50;;;;;;;5.88;2.40;;;1.80;99.90;;;;;;5091448;28;20415;-73
2022/04/02 02:46:17;;;;;;;6.45;2.47;;;1.80;99.90;;;;;;5091771;28;20044;-74
2022/04/02 02:48:44;;;;;;;4.97;2.28;;;1.70;99.90;;;;;;5074622;28;20480;-74
2022/04/02 02:51:10;;;;;;;4.60;2.33;;;1.70;99.90;;;;;;5091721;28;20058;-74
2022/04/02 02:53:35;;;;;;;6.43;2.58;;;1.70;99.90;;;;;;5091459;28;20480;-74
2022/04/02 02:56:01;;;;;;;4.70;2.50;;;1.70;99.90;;;;;;5091387;28;20044;-73
2022/04/02 02:58:26;;;;;;;5.68;2.55;;;1.60;99.90;;;;;;5091454;28;20069;-73
2022/04/02 03:00:52;;;;;;;5.03;2.50;;;1.60;99.90;;;;;;5074489;28;20036;-73
2022/04/02 03:03:18;;;;;;;3.85;2.25;;;1.50;99.90;;;;;;5074518;28;20040;-73
2022/04/02 03:05:44;;;;;;;6.32;2.35;;;1.50;99.90;;;;;;5091234;28;20040;-73
2022/04/02 03:08:09;;;;;;;4.18;2.17;;;1.50;99.90;;;;;;5092602;28;20063;-73
2022/04/02 03:10:35;;;;;;;5.25;2.30;;;1.60;99.90;;;;;;5094799;28;20043;-73
2022/04/02 03:13:00;;;;;;;5.45;2.45;;;1.50;99.90;;;;;;5094938;28;20145;-74
2022/04/02 03:15:26;;;;;;;7.28;2.78;;;1.50;99.90;;;;;;5095038;28;20404;-74
2022/04/02 03:17:53;;;;;;;10.32;2.78;;;1.50;99.90;;;;;;5094688;28;20514;-74
2022/04/02 03:20:20;;;;;;;6.38;2.58;;;1.50;99.90;;;;;;5094701;28;20051;-74
2022/04/02 03:22:48;;;;;;;4.90;2.47;;;1.50;99.90;;;;;;5094689;28;20032;-73
2022/04/02 03:25:16;;;;;;;6.25;2.35;;;1.50;99.90;;;;;;5094570;28;20047;-74
2022/04/02 03:27:43;;;;;;;4.72;2.65;;;1.50;99.90;;;;;;5094545;28;20039;-74
2022/04/02 03:30:10;;;;;;;6.18;2.20;;;1.50;99.90;;;;;;5077525;28;20036;-74
2022/04/02 03:32:36;;;;;;;6.07;2.75;;;1.40;99.90;;;;;;5094438;28;20111;-74
2022/04/02 03:35:02;;;;;;;6.32;2.55;;;1.50;99.90;;;;;;5094458;28;20077;-74
2022/04/02 03:37:30;;;;;;;4.57;2.60;;;1.50;99.90;;;;;;5094685;28;20044;-74
2022/04/02 03:39:56;;;;;;;6.25;2.85;;;1.40;99.90;;;;;;5094309;28;20044;-73
2022/04/02 03:42:21;;;;;;;6.15;3.00;;;1.40;99.90;;;;;;5094307;28;20043;-73
2022/04/02 03:44:48;;;;;;;5.85;3.05;;;1.40;99.90;;;;;;5094155;28;20032;-74
2022/04/02 03:47:15;;;;;;;7.50;2.78;;;1.40;99.90;;;;;;5094238;28;20067;-74
2022/04/02 03:49:46;;;;;;;6.55;2.60;;;1.40;99.90;;;;;;5094138;28;20040;-74
2022/04/02 03:52:13;;;;;;;7.72;2.97;;;1.40;99.90;;;;;;5094370;28;20035;-74
2022/04/02 03:54:39;;;;;;;5.78;2.75;;;1.40;99.90;;;;;;5094064;28;20050;-73
2022/04/02 03:57:09;;;;;;;4.50;2.45;;;1.40;99.90;;;;;;5077148;28;20411;-73
2022/04/02 03:59:35;;;;;;;5.78;2.35;;;1.40;99.90;;;;;;5094173;28;20594;-73
2022/04/02 04:02:02;;;;;;;4.55;2.40;;;1.40;99.90;;;;;;5093914;28;20415;-73
2022/04/02 04:04:28;;;;;;;7.05;3.20;;;1.30;99.90;;;;;;5076912;28;20040;-74
2022/04/02 04:06:54;;;;;;;7.22;2.70;;;1.30;99.90;;;;;;5093901;28;20081;-74
2022/04/02 04:09:20;;;;;;;5.60;2.65;;;1.30;99.90;;;;;;5076821;28;20043;-74
2022/04/02 04:11:47;;;;;;;6.22;2.20;;;1.30;99.90;;;;;;5093789;28;20036;-74
2022/04/02 04:14:14;;;;;;;3.65;1.95;;;1.30;99.90;;;;;;5076825;28;20047;-73
2022/04/02 04:16:41;;;;;;;10.07;2.75;;;1.30;99.90;;;;;;5093661;28;20044;-74
2022/04/02 04:19:06;;;;;;;5.32;2.28;;;1.30;99.90;;;;;;5093433;28;20412;-72
2022/04/02 04:21:34;;;;;;;4.30;2.20;;;1.30;99.90;;;;;;5076927;28;20047;-73
2022/04/02 04:24:00;;;;;;;4.97;2.33;;;1.30;99.90;;;;;;5093719;28;20063;-73
2022/04/02 04:26:26;;;;;;;5.35;2.33;;;1.30;99.90;;;;;;5076759;28;20119;-73
2022/04/02 04:28:51;;;;;;;6.20;2.30;;;1.30;99.90;;;;;;5093363;28;20519;-73
2022/04/02 04:31:18;;;;;;;4.40;2.22;;;1.20;99.90;;;;;;5093247;28;20039;-73
2022/04/02 04:33:48;;;;;;;3.97;2.28;;;1.20;99.90;;;;;;5076359;28;20119;-73
2022/04/02 04:36:15;;;;;;;6.93;2.53;;;1.20;99.90;;;;;;5093479;28;20039;-73
2022/04/02 04:38:44;;;;;;;8.10;1.98;;;1.20;99.90;;;;;;5093180;28;20393;-73
2022/04/02 04:41:09;;;;;;;6.72;2.20;;;1.20;99.90;;;;;;5093351;28;20071;-73
2022/04/02 04:43:35;;;;;;;5.20;2.22;;;1.30;99.90;;;;;;5093413;28;20459;-73
2022/04/02 04:46:04;;;;;;;6.90;2.35;;;1.20;99.90;;;;;;5092991;28;20044;-73
2022/04/02 04:48:30;;;;;;;5.80;2.13;;;1.20;99.90;;;;;;5076135;28;20044;-73
2022/04/02 04:50:56;;;;;;;6.15;2.13;;;1.20;99.90;;;;;;5092885;28;20032;-73
2022/04/02 04:53:22;;;;;;;6.50;2.20;;;1.20;99.90;;;;;;5092886;28;20381;-73
2022/04/02 04:55:48;;;;;;;6.90;2.05;;;1.20;99.90;;;;;;5092807;28;20040;-73
2022/04/02 04:58:13;;;;;;;4.45;2.10;;;1.20;99.90;;;;;;5076795;28;20032;-73
2022/04/02 05:00:40;;;;;;;6.10;2.33;;;1.20;99.90;;;;;;5092716;28;20089;-73
2022/04/02 05:03:08;;;;;;;3.58;1.63;;;1.20;99.90;;;;;;5092754;28;20082;-73
2022/04/02 05:05:34;;;;;;;3.78;1.90;;;1.20;99.90;;;;;;5092637;28;20055;-73
2022/04/02 05:08:00;;;;;;;4.70;2.50;;;1.20;99.90;;;;;;5076002;28;20122;-73
2022/04/02 05:10:27;;;;;;;7.10;2.20;;;1.20;99.90;;;;;;5092601;28;20070;-73
2022/04/02 05:12:52;;;;;;;5.72;2.15;;;1.20;99.90;;;;;;5092866;28;20047;-73
2022/04/02 05:15:18;;;;;;;5.85;1.95;;;1.20;99.90;;;;;;5092823;28;20036;-73
2022/04/02 05:17:45;;;;;;;8.52;2.40;;;1.30;99.90;;;;;;5075883;28;20520;-73
2022/04/02 05:20:12;;;;;;;4.63;2.30;;;1.30;99.90;;;;;;5092408;28;20048;-73
2022/04/02 05:22:38;;;;;;;5.78;2.00;;;1.30;99.90;;;;;;5092658;28;20059;-73
2022/04/02 05:25:04;;;;;;;10.23;2.50;;;1.30;99.90;;;;;;5092307;28;20496;-73
2022/04/02 05:27:30;;;;;;;4.20;1.90;;;1.30;99.90;;;;;;5092684;28;20122;-73
2022/04/02 05:29:56;;;;;;;7.68;2.20;;;1.40;99.90;;;;;;5092022;28;20464;-73
2022/04/02 05:32:21;;;;;;;4.53;2.13;;;1.40;99.90;;;;;;5075364;28;20032;-73
2022/04/02 05:34:47;;;;;;;6.10;2.40;;;1.40;99.90;;;;;;5092573;28;20392;-73
2022/04/02 05:37:13;;;;;;;8.50;2.17;;;1.40;99.90;;;;;;5075381;28;20565;-73
2022/04/02 05:39:41;;;;;;;6.40;2.28;;;1.50;99.90;;;;;;5092396;28;20074;-73
2022/04/02 05:42:07;;;;;;;8.15;2.63;;;1.50;99.90;;;;;;5092384;28;20044;-73
2022/04/02 05:44:33;;;;;;;5.18;2.15;;;1.50;99.90;;;;;;5075204;28;20040;-73
2022/04/02 05:46:59;;;;;;;5.32;2.30;;;1.60;99.90;;;;;;5092075;28;20043;-73
2022/04/02 05:49:25;;;;;;;3.55;1.90;;;1.60;99.90;;;;;;5091945;28;20031;-72
2022/04/02 05:51:50;;;;;;;5.50;2.03;;;1.70;99.90;;;;;;5092035;28;20115;-73
2022/04/02 05:54:16;;;;;;;4.35;2.38;;;1.70;99.90;;;;;;5091982;28;20082;-72
2022/04/02 05:56:42;;;;;;;4.88;2.50;;;1.80;99.90;;;;;;5092028;28;20040;-72
2022/04/02 05:59:08;;;;;;;6.68;2.55;;;1.80;99.90;;;;;;5091957;28;20119;-73
2022/04/02 06:01:37;;;;;;;4.93;2.45;;;1.90;99.90;;;;;;5091955;28;20082;-73
2022/04/02 06:04:03;;;;;;;5.85;2.35;;;1.90;99.90;;;;;;5074980;28;20044;-72
2022/04/02 06:06:30;;;;;;;5.82;2.22;;;1.90;99.90;;;;;;5091876;28;20035;-72
2022/04/02 06:08:56;;;;;;;4.53;3.05;;;2.00;99.90;;;;;;5075337;28;20097;-73
2022/04/02 06:11:21;;;;;;;4.93;2.50;;;2.00;99.90;;;;;;5075159;28;20393;-73
2022/04/02 06:13:47;;;;;;;8.00;2.70;;;2.10;99.90;;;;;;5091800;28;20039;-73
2022/04/02 06:16:13;;;;;;;6.07;2.20;;;2.10;99.90;;;;;;5091816;28;20032;-73
2022/04/02 06:18:38;;;;;;;7.55;2.30;;;2.20;99.90;;;;;;5091782;28;20043;-72
2022/04/02 06:21:04;;;;;;;5.88;2.30;;;2.20;99.90;;;;;;5091723;28;20044;-72
2022/04/02 06:23:31;;;;;;;6.47;2.63;;;2.30;99.90;;;;;;5091710;28;20040;-72
2022/04/02 06:25:56;;;;;;;6.57;2.40;;;2.40;99.90;;;;;;5091665;28;20503;-73
2022/04/02 06:28:22;;;;;;;6.70;2.25;;;2.40;99.90;;;;;;5091716;28;20051;-73
2022/04/02 06:30:48;;;;;;;4.90;2.33;;;2.50;99.90;;;;;;5091966;28;20032;-72
2022/04/02 06:33:14;;;;;;;6.43;2.58;;;2.50;99.90;;;;;;5091671;28;20631;-73
2022/04/02 06:35:40;;;;;;;4.80;2.33;;;2.50;99.90;;;;;;5091635;28;20047;-72
2022/04/02 06:38:05;;;;;;;6.00;2.38;;;2.60;99.90;;;;;;5091828;28;20445;-72
2022/04/02 06:40:31;;;;;;;4.70;2.00;;;2.60;99.90;;;;;;5091475;28;20564;-72
2022/04/02 06:42:58;;;;;;;8.30;2.38;;;2.70;99.90;;;;;;5075777;28;20047;-72
2022/04/02 06:45:27;;;;;;;7.70;2.20;;;2.80;99.90;;;;;;5095384;28;20047;-72
2022/04/02 06:47:52;;;;;;;5.60;2.38;;;2.80;99.90;;;;;;5095703;28;20400;-72
2022/04/02 06:50:18;;;;;;;7.03;2.47;;;2.90;99.90;;;;;;5095268;28;20488;-72
2022/04/02 06:52:45;;;;;;;7.32;2.72;;;3.00;99.90;;;;;;5095263;28;20085;-72
2022/04/02 06:55:13;;;;;;;6.13;2.38;;;3.00;99.90;;;;;;5095281;28;20434;-72
2022/04/02 06:57:56;;;;;;;7.70;2.80;;;3.10;99.90;;;;;;5095455;28;20052;-72
2022/04/02 07:00:23;;;;;;;4.80;2.30;;;3.20;99.90;;;;;;5095347;28;20036;-73
2022/04/02 07:02:49;;;;;;;7.00;2.38;;;3.30;99.90;;;;;;5095493;28;20126;-73
2022/04/02 07:05:15;;;;;;;8.02;3.10;;;3.40;99.90;;;;;;5095231;28;20503;-72
2022/04/02 07:07:41;;;;;;;8.48;2.75;;;3.40;99.90;;;;;;5078101;28;20040;-73
2022/04/02 07:10:08;;;;;;;8.50;3.22;;;3.50;99.90;;;;;;5077994;28;20079;-73
2022/04/02 07:12:34;;;;;;;5.35;2.95;;;3.50;99.90;;;;;;5094955;28;20085;-73
2022/04/02 07:15:00;;;;;;;6.88;2.85;;;3.60;99.90;;;;;;5095149;28;20040;-73
2022/04/02 07:17:27;;;;;;;5.88;2.53;;;3.60;99.90;;;;;;5094994;28;20044;-73
2022/04/02 07:19:55;;;;;;;7.63;2.63;;;3.70;99.90;;;;;;5094723;28;20040;-72
2022/04/02 07:22:22;;;;;;;4.78;2.30;;;3.70;99.90;;;;;;5078123;28;20504;-73
2022/04/02 07:24:48;;;;;;;5.57;2.47;;;3.70;99.90;;;;;;5094799;28;20108;-73
2022/04/02 07:27:15;;;;;;;8.77;2.70;;;3.80;99.90;;;;;;5077694;28;20036;-73
2022/04/02 07:29:42;;;;;;;6.00;2.30;;;3.90;99.90;;;;;;5094441;28;20165;-73
2022/04/02 07:32:09;;;;;;;6.85;2.58;;;3.90;99.90;;;;;;5095090;28;20044;-72
2022/04/02 07:34:35;;;;;;;8.57;2.45;;;4.00;99.90;;;;;;5094519;28;20044;-72
2022/04/02 07:37:27;;;;;;;4.68;2.35;;;4.10;99.90;;;;;;5094664;28;20108;-72
2022/04/02 07:39:52;;;;;;;4.82;2.28;;;4.10;99.90;;;;;;5094452;28;20048;-72
2022/04/02 07:42:23;;;;;;;5.97;2.03;;;4.20;99.90;;;;;;5094282;28;20040;-72
2022/04/02 07:45:08;;;;;;;6.03;2.17;;;4.20;99.90;;;;;;5094194;28;20446;-72
2022/04/02 07:47:44;;;;;;;7.97;2.95;;;4.30;99.90;;;;;;5077410;28;20040;-72
2022/04/02 07:50:13;;;;;;;4.88;1.90;;;4.40;99.90;;;;;;5077320;28;20032;-72
2022/04/02 07:52:51;;;;;;;5.45;2.15;;;4.50;99.90;;;;;;5094331;28;20107;-72
2022/04/02 07:55:19;;;;;;;4.80;2.08;;;4.60;99.90;;;;;;5093541;28;20455;-71
2022/04/02 07:57:47;;;;;;;5.85;2.20;;;4.70;99.90;;;;;;5094027;28;20089;-72
2022/04/02 08:00:15;;;;;;;7.93;2.38;;;4.90;99.90;;;;;;5093945;28;20200;-72
2022/04/02 08:02:46;;;;;;;6.32;2.05;;;5.00;99.90;;;;;;5093976;28;20055;-72
2022/04/02 08:05:14;;;;;;;4.63;2.00;;;5.00;99.90;;;;;;5093996;28;20047;-71
2022/04/02 08:07:49;;;;;;;5.18;2.30;;;5.10;99.90;;;;;;5094112;28;20434;-72
2022/04/02 08:10:18;;;;;;;5.45;2.03;;;5.20;99.90;;;;;;5093827;28;20044;-72
2022/04/02 08:12:44;;;;;;;6.53;2.10;;;5.20;99.90;;;;;;5093678;28;20406;-72
2022/04/02 08:15:18;;;;;;;6.78;2.08;;;5.20;99.90;;;;;;5093659;28;20051;-72
2022/04/02 08:17:46;;;;;;;4.38;1.92;;;5.20;99.90;;;;;;5093717;28;20036;-71
2022/04/02 08:20:15;;;;;;;4.93;1.90;;;5.20;99.90;;;;;;5093538;28;20040;-71
2022/04/02 08:22:41;;;;;;;6.68;1.70;;;5.20;99.90;;;;;;5093574;28;20044;-71
2022/04/02 08:25:07;;;;;;;4.30;2.00;;;5.10;99.90;;;;;;5093461;28;20127;-71
2022/04/02 08:27:57;;;;;;;6.22;2.13;;;5.00;99.90;;;;;;5093413;28;20031;-71
2022/04/02 08:30:32;;;;;;;6.30;2.40;;;4.90;99.90;;;;;;5093175;28;20119;-71
2022/04/02 08:33:24;;;;;;;4.63;2.17;;;4.80;99.90;;;;;;5093373;28;20032;-71
2022/04/02 08:36:15;;;;;;;6.60;2.17;;;4.80;99.90;;;;;;5093351;28;20097;-71
2022/04/02 08:38:56;;;;;;;7.50;2.30;;;4.70;99.90;;;;;;5093524;28;20048;-71
2022/04/02 08:41:47;;;;;;;4.13;1.90;;;4.70;99.90;;;;;;5093333;28;20043;-71
2022/04/02 08:44:40;;;;;;;6.35;3.25;;;4.70;99.90;;;;;;5093340;28;20071;-71
2022/04/02 08:47:43;;;;;;;6.75;1.90;;;4.80;99.90;;;;;;5093309;28;20040;-71
2022/04/02 08:50:10;;;;;;;7.88;3.25;;;4.80;99.90;;;;;;5092975;28;20568;-71
2022/04/02 08:52:56;;;;;;;9.50;2.80;;;4.80;99.90;;;;;;5093389;28;20055;-71
2022/04/02 08:55:34;;;;;;;7.63;3.47;;;4.90;99.90;;;;;;5093182;28;20443;-71
2022/04/02 08:58:09;;;;;;;6.72;1.90;;;5.00;99.90;;;;;;5093140;28;20527;-71
2022/04/02 09:00:43;;;;;;;3.40;1.88;;;5.00;99.90;;;;;;5075893;28;20093;-71
2022/04/02 09:03:32;;;;;;;2.58;1.48;;;5.10;99.90;;;;;;5093045;28;20036;-71
2022/04/02 09:06:36;;;;;;;4.82;1.98;;;5.20;99.90;;;;;;5075039;28;20032;-71
2022/04/02 09:09:06;;;;;;;7.32;2.20;;;5.30;99.90;;;;;;5092717;28;20036;-71
2022/04/02 09:11:56;;;;;;;5.20;2.40;;;5.30;99.90;;;;;;5092642;28;20036;-71
2022/04/02 09:14:31;;;;;;;6.10;2.20;;;5.30;99.90;;;;;;5092663;28;20131;-71
2022/04/02 09:17:30;;;;;;;10.55;3.00;;;5.20;99.90;;;;;;5092563;28;20044;-71
2022/04/02 09:20:35;;;;;;;9.13;3.40;;;5.30;99.90;;;;;;5069521;28;20055;-71
2022/04/02 09:23:23;;;;;;;7.47;3.65;;;5.70;99.90;;;;;;5092512;28;20036;-71
2022/04/02 09:26:20;;;;;;;7.53;2.30;;;6.00;99.90;;;;;;5092404;28;20044;-71
2022/04/02 09:28:59;;;;;;;5.63;1.98;;;6.30;99.90;;;;;;5075468;28;20043;-71
2022/04/02 09:31:55;;;;;;;4.07;1.20;;;6.60;99.90;;;;;;5092454;28;20040;-71
2022/04/02 09:34:58;;;;;;;4.40;1.85;;;6.70;99.90;;;;;;5092538;28;20051;-71
2022/04/02 09:37:33;;;;;;;15.93;3.75;;;6.70;99.90;;;;;;5092483;28;20042;-71
2022/04/02 09:40:09;;;;;;;6.68;2.00;;;6.50;98.50;;;;;;5075291;28;20036;-71
2022/04/02 09:42:46;;;;;;;6.57;1.55;;;6.30;99.30;;;;;;5075590;28;20059;-71
2022/04/02 09:45:14;;;;;;;4.70;1.50;;;6.20;99.60;;;;;;5075181;28;20495;-71
2022/04/02 09:47:48;;;;;;;4.65;1.42;;;6.00;99.90;;;;;;5075518;28;20095;-71
2022/04/02 09:50:14;;;;;;;;;;;5.80;99.90;;;;;;5092455;28;20496;-71
2022/04/02 09:53:19;;;;;;;3.95;1.13;;;5.60;99.90;;;;;;5092032;28;19916;-71
2022/04/02 09:56:08;;;;;;;2.92;1.20;;;5.50;99.90;;;;;;5089366;28;20052;-71
2022/04/02 09:58:51;;;;;;;3.55;1.10;;;5.40;99.90;;;;;;5075126;28;20044;-71
2022/04/02 10:01:36;;;;;;;4.10;1.15;;;5.30;99.90;;;;;;5091931;28;20047;-71
2022/04/02 10:04:08;;;;;;;5.55;1.40;;;5.30;99.90;;;;;;5075033;28;20497;-71
2022/04/02 10:06:48;;;;;;;4.43;1.30;;;5.30;99.90;;;;;;5091883;28;20040;-71
2022/04/02 10:09:16;;;;;;;3.20;1.50;;;5.40;99.90;;;;;;5092093;28;20186;-71
2022/04/02 10:11:58;;;;;;;2.70;1.50;;;5.40;99.90;;;;;;5091865;28;20040;-71
2022/04/02 10:14:25;;;;;;;2.97;1.02;;;5.40;99.90;;;;;;5075053;28;20036;-71
2022/04/02 10:16:55;;;;;;;2.03;1.10;;;5.50;99.90;;;;;;5092660;28;20100;-71
2022/04/02 10:19:29;;;;;;;2.95;1.40;;;5.60;99.90;;;;;;5079505;28;20452;-71
2022/04/02 10:21:57;;;;;;;5.50;2.08;;;5.80;99.10;;;;;;5078981;28;20040;-71
2022/04/02 10:24:24;;;;;;;3.78;1.23;;;5.90;97.90;;;;;;5095770;28;20051;-71
2022/04/02 10:26:57;;;;;;;4.90;0.95;;;6.00;97.20;;;;;;5095773;28;20477;-71
2022/04/02 10:29:51;;;;;;;5.85;1.00;;;6.40;94.30;;;;;;5095606;28;20032;-71
2022/04/02 10:32:48;;;;;;;1.20;0.70;;;6.70;91.80;;;;;;5095989;28;20542;-71
2022/04/02 10:35:14;;;;;;;2.42;1.00;;;6.90;78.30;;;;;;5078706;28;20496;-71
2022/04/02 10:38:04;;;;;;;3.50;0.90;;;7.00;84.60;;;;;;5095804;28;20450;-72
2022/04/02 10:40:32;;;;;;;4.22;1.30;;;6.80;83.50;;;;;;5078614;28;20040;-71
2022/04/02 10:43:06;;;;;;;2.22;0.98;;;6.70;86.30;;;;;;5095537;28;20044;-71
2022/04/02 10:45:35;;;;;;;3.15;1.05;;;6.60;89.30;;;;;;5095380;28;20051;-71
2022/04/02 10:48:11;;;;;;;2.65;1.13;;;6.50;89.60;;;;;;5079488;28;20036;-71
2022/04/02 10:50:38;;;;;;;5.50;1.27;;;6.60;91.00;;;;;;5095197;28;20036;-71
2022/04/02 10:53:05;;;;;;;3.22;1.00;;;6.80;91.50;;;;;;5095537;28;20036;-72
2022/04/02 10:55:31;;;;;;;3.13;1.33;;;7.20;88.50;;;;;;5078405;28;20040;-71
2022/04/02 10:57:59;;;;;;;5.00;0.88;;;7.90;83.10;;;;;;5095412;28;20446;-71
2022/04/02 11:00:29;;;;;;;3.05;1.17;;;8.50;78.70;;;;;;5095358;28;20052;-71
2022/04/02 11:03:04;;;;;;;5.45;1.25;;;8.80;71.10;;;;;;5095089;28;20051;-71
2022/04/02 11:05:35;;;;;;;2.92;1.17;;;9.10;67.60;;;;;;5094901;28;20514;-71
2022/04/02 11:08:22;;;;;;;4.18;1.30;;;9.30;69.80;;;;;;5095117;28;20032;-71
2022/04/02 11:10:48;;;;;;;3.83;1.23;;;9.30;68.10;;;;;;5094939;28;20119;-71
2022/04/02 11:13:28;;;;;;;3.25;1.33;;;9.10;69.70;;;;;;5094901;28;20036;-71
2022/04/02 11:15:55;;;;;;;3.28;1.17;;;9.30;69.20;;;;;;5078086;28;20050;-71
2022/04/02 11:18:21;;;;;;;4.72;1.38;;;9.20;69.50;;;;;;5095079;28;20097;-71
2022/04/02 11:20:48;;;;;;;2.78;1.15;;;9.20;70.50;;;;;;5094671;28;20040;-71
2022/04/02 11:23:19;;;;;;;4.10;1.35;;;9.00;69.70;;;;;;5094705;28;20127;-72
2022/04/02 11:25:48;;;;;;;6.60;1.40;;;8.70;69.40;;;;;;5077907;28;20082;-72
2022/04/02 11:28:20;;;;;;;6.03;1.73;;;8.40;69.90;;;;;;5077140;28;20028;-71
2022/04/02 11:30:48;;;;;;;3.33;1.20;;;8.00;71.10;;;;;;5094575;28;20396;-72
2022/04/02 11:33:14;;;;;;;2.47;1.25;;;7.70;72.80;;;;;;5077629;28;20032;-72
2022/04/02 11:35:48;;;;;;;5.80;1.70;;;7.50;76.20;;;;;;5094504;28;20047;-72
2022/04/02 11:38:20;;;;;;;6.50;1.40;;;7.20;81.00;;;;;;5094462;28;20036;-72
2022/04/02 11:41:13;;;;;;;4.50;1.42;;;6.90;86.20;;;;;;5077494;28;20051;-72
2022/04/02 11:43:41;;;;;;;3.37;1.43;;;6.60;91.20;;;;;;5094687;28;20077;-72
2022/04/02 11:46:10;;;;;;;3.88;1.15;;;6.50;92.80;;;;;;5094172;28;20044;-72
2022/04/02 11:48:48;;;;;;;3.80;1.35;;;6.50;94.60;;;;;;5094481;28;20083;-72
2022/04/02 11:51:20;;;;;;;4.45;1.40;;;6.50;94.70;;;;;;5094187;28;20085;-72
2022/04/02 11:53:45;;;;;;;4.38;1.30;;;6.50;93.90;;;;;;5094165;28;20496;-72
2022/04/02 11:56:30;;;;;;;4.32;1.40;;;6.70;93.70;;;;;;5094089;28;20036;-72
2022/04/02 11:58:58;;;;;;;4.28;1.20;;;6.90;92.20;;;;;;5077395;28;20044;-72
2022/04/02 12:01:25;;;;;;;5.10;1.10;;;7.00;86.40;;;;;;5094197;28;20086;-72
2022/04/02 12:04:14;;;;;;;3.20;0.90;;;7.20;86.70;;;;;;5093966;28;20097;-72
2022/04/02 12:06:51;;;;;;;2.55;1.17;;;7.40;74.50;;;;;;5093953;28;20040;-72
2022/04/02 12:09:22;;;;;;;6.28;1.10;;;7.70;70.10;;;;;;5077171;28;20373;-72
2022/04/02 12:12:03;;;;;;;1.63;0.70;;;8.30;67.90;;;;;;5093753;28;20079;-72
2022/04/02 12:14:41;;;;;;;2.65;1.10;;;8.70;61.80;;;;;;5077153;28;20381;-72
2022/04/02 12:17:12;;;;;;;2.70;0.82;;;8.80;57.70;;;;;;5093636;28;20039;-72
2022/04/02 12:19:55;;;;;;;2.42;0.90;;;8.80;57.40;;;;;;5076677;28;20044;-72
2022/04/02 12:22:31;;;;;;;3.30;1.10;;;8.90;56.80;;;;;;5093843;28;20044;-72
2022/04/02 12:25:08;;;;;;;4.78;1.00;;;9.10;57.50;;;;;;5093705;28;20032;-72
2022/04/02 12:27:36;;;;;;;1.63;0.90;;;9.40;56.70;;;;;;5093531;28;20540;-71
2022/04/02 12:30:08;;;;;;;3.22;1.05;;;9.50;57.40;;;;;;5093344;28;20491;-71
2022/04/02 12:32:44;;;;;;;4.22;1.23;;;10.00;56.50;;;;;;5093478;28;20127;-72
2022/04/02 12:35:12;;;;;;;4.13;0.90;;;10.30;56.00;;;;;;5093292;28;20048;-71
2022/04/02 12:37:50;;;;;;;4.57;1.13;;;10.60;56.00;;;;;;5093513;28;20040;-71
2022/04/02 12:40:20;;;;;;;1.83;0.98;;;10.80;53.80;;;;;;5093181;28;20039;-73
2022/04/02 12:42:46;;;;;;;3.00;1.17;;;10.90;53.10;;;;;;5076434;28;20069;-71
2022/04/02 12:45:15;;;;;;;3.60;0.95;;;11.10;52.90;;;;;;5093068;28;20040;-71
2022/04/02 12:47:54;;;;;;;2.75;0.98;;;11.40;52.00;;;;;;5093093;28;20081;-71
2022/04/02 12:50:19;;;;;;;1.85;0.80;;;11.60;50.50;;;;;;5076142;28;20043;-71
2022/04/02 12:52:47;;;;;;;3.58;0.70;;;11.70;49.20;;;;;;5092962;28;20040;-71
2022/04/02 12:55:21;;;;;;;7.32;1.08;;;11.80;48.70;;;;;;5092912;28;20380;-71
2022/04/02 12:58:07;;;;;;;1.45;0.50;;;12.00;48.10;;;;;;5092881;28;20445;-71
2022/04/02 13:00:44;;;;;;;2.80;1.00;;;12.30;46.00;;;;;;5093110;28;20079;-71
2022/04/02 13:03:19;;;;;;;4.88;1.38;;;12.30;46.10;;;;;;5092846;28;20046;-71
2022/04/02 13:05:49;;;;;;;3.00;0.90;;;12.20;47.00;;;;;;5092773;28;20052;-69
2022/04/02 13:08:17;;;;;;;3.08;0.70;;;11.90;46.20;;;;;;5093491;28;20045;-69
2022/04/02 13:10:46;;;;;;;1.88;0.90;;;12.00;46.60;;;;;;5075726;28;20043;-69
2022/04/02 13:13:14;;;;;;;2.28;0.70;;;12.10;46.20;;;;;;5092609;28;20032;-69
2022/04/02 13:15:49;;;;;;;3.20;0.68;;;12.00;46.00;;;;;;5092854;28;20097;-69